Hanjin Philadelphia — A8CN8 — position and weather

sailwx.info

Track history (hours):
 
Tides and Currents Weather Stations Pressure Air Temp Water Temp Dewpoint Dewpoint Depression Visibility Wind Speed Wind Dir Waves Ship Positions

Hanjin Philadelphia

Last reported at 2014-Sep-01 19:26 UTC. Time now 2014-Sep-03 02:19 UTC.
Position N 01°12' E 103°36'.

Length 282.1 m; beam 32.2 m; draft 13 m.

Type: Ship. MMSI: 636090670.

Date/timePositionNaut miles runAvg speedWind from/ knotsBaromVisibWave heightAir tempDewpointWater temp
2014-Sep-01 19:26N 01°12' E 103°36'1213.5
2014-Sep-01 18:33N 01°11' E 103°47'10 9.8
2014-Sep-01 17:33N 01°15' E 103°56'2 1.8
2014-Sep-01 16:31N 01°17' E 103°55'0 0.1
2014-Sep-01 15:31N 01°17' E 103°55'0 0.1
2014-Sep-01 14:31N 01°17' E 103°55'0 0.1
2014-Sep-01 13:31N 01°17' E 103°56'0 0.0
2014-Sep-01 12:31N 01°17' E 103°56'0 0.1
2014-Sep-01 11:31N 01°17' E 103°56'0 0.0
2014-Sep-01 10:31N 01°17' E 103°56'0 0.0
2014-Sep-01 09:31N 01°17' E 103°56'0 0.1
2014-Sep-01 08:31N 01°17' E 103°56'0 0.1
2014-Sep-01 07:31N 01°17' E 103°55'0 0.1
2014-Sep-01 06:31N 01°17' E 103°55'0 0.1
2014-Sep-01 05:28N 01°17' E 103°55'0 0.0
2014-Sep-01 04:31N 01°17' E 103°55'0 0.0
2014-Sep-01 03:31N 01°17' E 103°55'0 0.0
2014-Sep-01 02:31N 01°17' E 103°55'0 0.0
2014-Sep-01 01:28N 01°17' E 103°55'0 0.0
2014-Sep-01 00:31N 01°17' E 103°55'0 0.0
2014-Aug-31 23:31N 01°17' E 103°55'0 0.0
2014-Aug-31 22:31N 01°17' E 103°55'0 0.0
2014-Aug-31 21:31N 01°17' E 103°55'0 0.0
2014-Aug-31 20:31N 01°17' E 103°55'0 0.0
2014-Aug-31 19:31N 01°17' E 103°55'0 0.0
2014-Aug-31 18:28N 01°17' E 103°55'0 0.0
2014-Aug-31 17:31N 01°17' E 103°55'2 1.7
2014-Aug-31 16:33N 01°16' E 103°56'8 7.5
2014-Aug-31 15:33N 01°12' E 103°50'6 6.4
2014-Aug-31 14:33N 01°17' E 103°45'0 0.1
2014-Aug-31 13:33N 01°17' E 103°45'0 0.0
2014-Aug-31 12:07N 01°17' E 103°45'0 0.0
2014-Aug-31 11:31N 01°17' E 103°45'0 0.0
2014-Aug-31 10:07N 01°17' E 103°45'0 0.0
2014-Aug-31 09:28N 01°17' E 103°45'0 0.0
2014-Aug-31 08:31N 01°17' E 103°45'0 0.0
2014-Aug-31 07:31N 01°17' E 103°45'0 0.0
2014-Aug-31 06:31N 01°17' E 103°45'0 0.0
2014-Aug-31 05:28N 01°17' E 103°45'0 0.0
2014-Aug-31 04:31N 01°17' E 103°45'0 0.0
2014-Aug-31 03:30N 01°17' E 103°45'0 0.0
2014-Aug-31 02:06N 01°17' E 103°45'0 0.0
2014-Aug-31 01:30N 01°17' E 103°45'0 0.0
2014-Aug-31 00:27N 01°17' E 103°45'0 0.0
2014-Aug-30 23:18N 01°17' E 103°45'0 0.0
2014-Aug-30 22:21N 01°17' E 103°45'0 0.0
2014-Aug-30 21:33N 01°17' E 103°45'0 0.0
2014-Aug-30 20:24N 01°17' E 103°45'0 0.4
2014-Aug-30 19:34N 01°16' E 103°45'6 5.5
2014-Aug-30 18:34N 01°13' E 103°49'10 9.7
2014-Aug-30 17:34N 01°15' E 103°58'1211.6
2014-Aug-30 16:33N 01°17' E 104°10'  
2014-Aug-26 13:30N 22°20' E 114°05'11 9.1
2014-Aug-26 12:20N 22°23' E 113°54'4 5.6
2014-Aug-26 11:34N 22°27' E 113°53'0 0.2
2014-Aug-26 10:24N 22°27' E 113°53'0 0.0
2014-Aug-26 09:33N 22°27' E 113°53'0 0.0
2014-Aug-26 08:33N 22°27' E 113°53'0 0.0
2014-Aug-26 07:34N 22°27' E 113°53'0 0.0
2014-Aug-26 06:34N 22°27' E 113°53'0 0.0
2014-Aug-26 05:33N 22°27' E 113°53'0 0.0
2014-Aug-26 04:34N 22°27' E 113°53'0 0.0
2014-Aug-26 03:33N 22°27' E 113°53'0 0.0
2014-Aug-26 02:33N 22°27' E 113°53'0 0.0
2014-Aug-26 01:33N 22°27' E 113°53'0 0.0
2014-Aug-26 00:33N 22°27' E 113°53'0 0.0
2014-Aug-25 23:33N 22°27' E 113°53'0 0.0
2014-Aug-25 22:33N 22°27' E 113°53'0 0.0
2014-Aug-25 21:33N 22°27' E 113°53'0 0.0
2014-Aug-25 20:34N 22°27' E 113°53'0 0.1
2014-Aug-25 19:34N 22°27' E 113°53'14 7.2
2014-Aug-25 17:33N 22°18' E 114°06'12214.8
2014-Aug-25 09:16N 22°36' E 116°17'1318.1
2014-Aug-25 08:32N 22°40' E 116°30'1818.4
2014-Aug-25 07:33N 22°48' E 116°48'1818.5
2014-Aug-25 06:33N 22°56' E 117°06'1818.1
2014-Aug-25 05:33N 23°06' E 117°23'1817.7
2014-Aug-25 04:32N 23°17' E 117°38'2217.8
2014-Aug-25 03:18N 23°30' E 117°57'1317.3
2014-Aug-25 02:34N 23°40' E 118°07'1817.5
2014-Aug-25 01:32N 23°50' E 118°22'1717.5
2014-Aug-25 00:33N 24°00' E 118°38'1717.5
2014-Aug-24 23:33N 24°13' E 118°51'1817.5
2014-Aug-24 22:32N 24°24' E 119°06'1816.7
2014-Aug-24 21:29N 24°35' E 119°21'1515.6
2014-Aug-24 20:33N 24°44' E 119°34'1615.8
2014-Aug-24 19:32N 24°54' E 119°47'2015.9
2014-Aug-24 18:18N 25°09' E 120°02'11216.5
2014-Aug-24 11:32N 26°39' E 121°15'2416.9
2014-Aug-24 10:05N 27°00' E 121°29'1116.6
2014-Aug-24 09:27N 27°09' E 121°35'13316.7
2014-Aug-24 01:30N 29°12' E 122°32'1717.1
2014-Aug-24 00:31N 29°29' E 122°33'1515.6
2014-Aug-23 23:33N 29°42' E 122°25'1312.9
2014-Aug-23 22:33N 29°50' E 122°13'1212.4
2014-Aug-23 21:33N 29°56' E 122°01'8 7.2
2014-Aug-23 20:28N 29°56' E 121°52'0 0.0
2014-Aug-23 19:28N 29°56' E 121°52'36 2.2
2014-Aug-23 03:33N 29°48' E 122°32'1110.8
2014-Aug-23 02:33N 29°48' E 122°44'9 9.1
2014-Aug-23 01:32N 29°50' E 122°55'9 9.4
2014-Aug-23 00:32N 29°57' E 123°01'10 8.3
2014-Aug-22 23:21N 30°07' E 123°04'7 8.7
2014-Aug-22 22:33N 30°14' E 123°04'9 9.3
2014-Aug-22 21:33N 30°23' E 123°04'1110.4
2014-Aug-22 20:30N 30°34' E 123°04'1010.8
2014-Aug-22 19:33N 30°44' E 123°03'  
Track history (hours):
 
Tides and Currents Weather Stations Pressure Air Temp Water Temp Dewpoint Dewpoint Depression Visibility Wind Speed Wind Dir Waves Ship Positions

Hanjin Philadelphia

Last reported at 2014-Sep-01 19:26 UTC. Time now 2014-Sep-03 02:19 UTC.
Position N 01°12' E 103°36'.

Length 282.1 m; beam 32.2 m; draft 13 m.

Type: Ship. MMSI: 636090670.

Date/timePositionNaut miles runAvg speedWind from/ knotsBaromVisibWave heightAir tempDewpointWater temp
2014-Sep-01 19:26N 01°12' E 103°36'1213.5
2014-Sep-01 18:33N 01°11' E 103°47'10 9.8
2014-Sep-01 17:33N 01°15' E 103°56'2 1.8
2014-Sep-01 16:31N 01°17' E 103°55'0 0.1
2014-Sep-01 15:31N 01°17' E 103°55'0 0.1
2014-Sep-01 14:31N 01°17' E 103°55'0 0.1
2014-Sep-01 13:31N 01°17' E 103°56'0 0.0
2014-Sep-01 12:31N 01°17' E 103°56'0 0.1
2014-Sep-01 11:31N 01°17' E 103°56'0 0.0
2014-Sep-01 10:31N 01°17' E 103°56'0 0.0
2014-Sep-01 09:31N 01°17' E 103°56'0 0.1
2014-Sep-01 08:31N 01°17' E 103°56'0 0.1
2014-Sep-01 07:31N 01°17' E 103°55'0 0.1
2014-Sep-01 06:31N 01°17' E 103°55'0 0.1
2014-Sep-01 05:28N 01°17' E 103°55'0 0.0
2014-Sep-01 04:31N 01°17' E 103°55'0 0.0
2014-Sep-01 03:31N 01°17' E 103°55'0 0.0
2014-Sep-01 02:31N 01°17' E 103°55'0 0.0
2014-Sep-01 01:28N 01°17' E 103°55'0 0.0
2014-Sep-01 00:31N 01°17' E 103°55'0 0.0
2014-Aug-31 23:31N 01°17' E 103°55'0 0.0
2014-Aug-31 22:31N 01°17' E 103°55'0 0.0
2014-Aug-31 21:31N 01°17' E 103°55'0 0.0
2014-Aug-31 20:31N 01°17' E 103°55'0 0.0
2014-Aug-31 19:31N 01°17' E 103°55'0 0.0
2014-Aug-31 18:28N 01°17' E 103°55'0 0.0
2014-Aug-31 17:31N 01°17' E 103°55'2 1.7
2014-Aug-31 16:33N 01°16' E 103°56'8 7.5
2014-Aug-31 15:33N 01°12' E 103°50'6 6.4
2014-Aug-31 14:33N 01°17' E 103°45'0 0.1
2014-Aug-31 13:33N 01°17' E 103°45'0 0.0
2014-Aug-31 12:07N 01°17' E 103°45'0 0.0
2014-Aug-31 11:31N 01°17' E 103°45'0 0.0
2014-Aug-31 10:07N 01°17' E 103°45'0 0.0
2014-Aug-31 09:28N 01°17' E 103°45'0 0.0
2014-Aug-31 08:31N 01°17' E 103°45'0 0.0
2014-Aug-31 07:31N 01°17' E 103°45'0 0.0
2014-Aug-31 06:31N 01°17' E 103°45'0 0.0
2014-Aug-31 05:28N 01°17' E 103°45'0 0.0
2014-Aug-31 04:31N 01°17' E 103°45'0 0.0
2014-Aug-31 03:30N 01°17' E 103°45'0 0.0
2014-Aug-31 02:06N 01°17' E 103°45'0 0.0
2014-Aug-31 01:30N 01°17' E 103°45'0 0.0
2014-Aug-31 00:27N 01°17' E 103°45'0 0.0
2014-Aug-30 23:18N 01°17' E 103°45'0 0.0
2014-Aug-30 22:21N 01°17' E 103°45'0 0.0
2014-Aug-30 21:33N 01°17' E 103°45'0 0.0
2014-Aug-30 20:24N 01°17' E 103°45'0 0.4
2014-Aug-30 19:34N 01°16' E 103°45'6 5.5
2014-Aug-30 18:34N 01°13' E 103°49'10 9.7
2014-Aug-30 17:34N 01°15' E 103°58'1211.6
2014-Aug-30 16:33N 01°17' E 104°10'  
2014-Aug-26 13:30N 22°20' E 114°05'11 9.1
2014-Aug-26 12:20N 22°23' E 113°54'4 5.6
2014-Aug-26 11:34N 22°27' E 113°53'0 0.2
2014-Aug-26 10:24N 22°27' E 113°53'0 0.0
2014-Aug-26 09:33N 22°27' E 113°53'0 0.0
2014-Aug-26 08:33N 22°27' E 113°53'0 0.0
2014-Aug-26 07:34N 22°27' E 113°53'0 0.0
2014-Aug-26 06:34N 22°27' E 113°53'0 0.0
2014-Aug-26 05:33N 22°27' E 113°53'0 0.0
2014-Aug-26 04:34N 22°27' E 113°53'0 0.0
2014-Aug-26 03:33N 22°27' E 113°53'0 0.0
2014-Aug-26 02:33N 22°27' E 113°53'0 0.0
2014-Aug-26 01:33N 22°27' E 113°53'0 0.0
2014-Aug-26 00:33N 22°27' E 113°53'0 0.0
2014-Aug-25 23:33N 22°27' E 113°53'0 0.0
2014-Aug-25 22:33N 22°27' E 113°53'0 0.0
2014-Aug-25 21:33N 22°27' E 113°53'0 0.0
2014-Aug-25 20:34N 22°27' E 113°53'0 0.1
2014-Aug-25 19:34N 22°27' E 113°53'14 7.2
2014-Aug-25 17:33N 22°18' E 114°06'12214.8
2014-Aug-25 09:16N 22°36' E 116°17'1318.1
2014-Aug-25 08:32N 22°40' E 116°30'1818.4
2014-Aug-25 07:33N 22°48' E 116°48'1818.5
2014-Aug-25 06:33N 22°56' E 117°06'1818.1
2014-Aug-25 05:33N 23°06' E 117°23'1817.7
2014-Aug-25 04:32N 23°17' E 117°38'2217.8
2014-Aug-25 03:18N 23°30' E 117°57'1317.3
2014-Aug-25 02:34N 23°40' E 118°07'1817.5
2014-Aug-25 01:32N 23°50' E 118°22'1717.5
2014-Aug-25 00:33N 24°00' E 118°38'1717.5
2014-Aug-24 23:33N 24°13' E 118°51'1817.5
2014-Aug-24 22:32N 24°24' E 119°06'1816.7
2014-Aug-24 21:29N 24°35' E 119°21'1515.6
2014-Aug-24 20:33N 24°44' E 119°34'1615.8
2014-Aug-24 19:32N 24°54' E 119°47'2015.9
2014-Aug-24 18:18N 25°09' E 120°02'11216.5
2014-Aug-24 11:32N 26°39' E 121°15'2416.9
2014-Aug-24 10:05N 27°00' E 121°29'1116.6
2014-Aug-24 09:27N 27°09' E 121°35'13316.7
2014-Aug-24 01:30N 29°12' E 122°32'1717.1
2014-Aug-24 00:31N 29°29' E 122°33'1515.6
2014-Aug-23 23:33N 29°42' E 122°25'1312.9
2014-Aug-23 22:33N 29°50' E 122°13'1212.4
2014-Aug-23 21:33N 29°56' E 122°01'8 7.2
2014-Aug-23 20:28N 29°56' E 121°52'0 0.0
2014-Aug-23 19:28N 29°56' E 121°52'36 2.2
2014-Aug-23 03:33N 29°48' E 122°32'1110.8
2014-Aug-23 02:33N 29°48' E 122°44'9 9.1
2014-Aug-23 01:32N 29°50' E 122°55'9 9.4
2014-Aug-23 00:32N 29°57' E 123°01'10 8.3
2014-Aug-22 23:21N 30°07' E 123°04'7 8.7
2014-Aug-22 22:33N 30°14' E 123°04'9 9.3
2014-Aug-22 21:33N 30°23' E 123°04'1110.4
2014-Aug-22 20:30N 30°34' E 123°04'1010.8
2014-Aug-22 19:33N 30°44' E 123°03'  

Dump ship's entire track history